Time;durP1;ratioP1;P1;durP2;ratioP2;P2;SDS_P1;SDS_P2;PMS_P1;PMS_P2;Temp;Humidity;BMP_temperature;BMP_pressure;BME280_temperature;BME280_humidity;BME280_pressure;Samples;Min_cycle;Max_cycle;Signal;HPM_P1;HPM_P2
2023/03/16 00:00:26;;;;;;;5.45;2.55;;;;;;;-146.25;94.41;52457.41;2103926;28;34172;-82
2023/03/16 00:01:28;;;;;;;7.65;2.35;;;;;;;-146.25;93.77;52435.09;2104668;28;20893;-82
2023/03/16 00:02:30;;;;;;;8.57;2.50;;;;;;;-146.25;93.68;52402.66;2104784;28;31492;-82
2023/03/16 00:03:33;;;;;;;8.15;2.33;;;;;;;-146.25;94.21;52429.03;2105120;28;20048;-82
2023/03/16 00:04:36;;;;;;;6.95;2.38;;;;;;;-146.25;94.09;52427.00;2104031;28;34708;-82
2023/03/16 00:05:38;;;;;;;6.43;2.53;;;;;;;-146.25;93.52;52437.13;2103895;28;37216;-82
2023/03/16 00:06:40;;;;;;;7.72;2.60;;;;;;;-146.25;93.92;52412.81;2105674;28;33128;-81
2023/03/16 00:07:42;;;;;;;8.13;2.75;;;;;;;-146.25;93.18;52433.06;2114289;28;20049;-81
2023/03/16 00:08:46;;;;;;;7.35;2.67;;;;;;;-146.25;93.18;52418.88;2113716;28;36998;-81
2023/03/16 00:09:48;;;;;;;7.00;2.63;;;;;;;-146.25;92.81;52429.03;2112510;28;33754;-81
2023/03/16 00:10:52;;;;;;;7.95;2.55;;;;;;;-146.25;92.39;52412.81;2106512;28;33761;-81
2023/03/16 00:11:54;;;;;;;7.35;2.40;;;;;;;-146.25;92.74;52408.75;2102108;28;38862;-81
2023/03/16 00:12:56;;;;;;;6.72;2.65;;;;;;;-146.25;93.37;52429.03;2098248;28;20045;-81
2023/03/16 00:13:58;;;;;;;4.95;2.30;;;;;;;-146.25;93.03;52384.41;2105595;28;37873;-81
2023/03/16 00:15:01;;;;;;;7.32;2.00;;;;;;;-146.25;92.55;52420.91;2106251;28;33708;-81
2023/03/16 00:16:03;;;;;;;7.60;2.20;;;;;;;-146.25;92.60;52437.13;2106035;28;20037;-81
2023/03/16 00:17:05;;;;;;;4.88;1.90;;;;;;;-146.25;92.33;52418.88;2105994;28;38507;-81
2023/03/16 00:18:07;;;;;;;4.63;2.10;;;;;;;-146.25;92.07;52427.00;2106077;28;35394;-81
2023/03/16 00:19:11;;;;;;;6.25;1.95;;;;;;;-146.25;92.12;52416.84;2107314;28;20045;-81
2023/03/16 00:20:17;;;;;;;6.18;2.00;;;;;;;-146.25;91.67;52424.97;2105740;28;37263;-80
2023/03/16 00:21:20;;;;;;;6.72;1.83;;;;;;;-146.25;91.62;52398.59;2105857;28;36682;-81
2023/03/16 00:22:29;;;;;;;7.07;1.88;;;;;;;-146.25;91.06;52433.06;2096878;28;34451;-81
2023/03/16 00:23:34;;;;;;;5.47;1.80;;;;;;;-146.25;91.05;52412.81;2098567;28;37041;-80
2023/03/16 00:24:36;;;;;;;5.03;1.55;;;;;;;-146.25;90.89;52435.09;2106696;28;20785;-80
2023/03/16 00:25:38;;;;;;;5.63;1.50;;;;;;;-146.25;90.78;52392.53;2096536;28;37166;-80
2023/03/16 00:26:41;;;;;;;6.07;1.65;;;;;;;-146.25;90.78;52410.78;2096695;28;32284;-80
2023/03/16 00:27:42;;;;;;;6.13;1.83;;;;;;;-146.25;90.43;52424.97;2106140;28;20040;-81
2023/03/16 00:28:44;;;;;;;4.07;1.85;;;;;;;-146.25;90.09;52408.75;2096443;28;37712;-80
2023/03/16 00:29:48;;;;;;;7.20;1.83;;;;;;;-146.25;90.10;52420.91;2097604;28;20076;-81
2023/03/16 00:30:50;;;;;;;5.13;1.48;;;;;;;-146.25;89.15;52433.06;2088306;28;28726;-81
2023/03/16 00:31:51;;;;;;;4.50;1.67;;;;;;;-146.25;89.21;52414.84;2072521;28;28396;-80
2023/03/16 00:32:53;;;;;;;3.70;1.30;;;;;;;-146.25;89.87;52427.00;2088742;28;27001;-80
2023/03/16 00:33:55;;;;;;;6.13;2.08;;;;;;;-146.25;89.91;52420.91;2106244;28;27255;-80
2023/03/16 00:34:57;;;;;;;5.47;1.73;;;;;;;-146.25;89.13;52412.81;2097139;28;26121;-80
2023/03/16 00:36:02;;;;;;;7.78;1.92;;;;;;;-146.25;89.45;52445.25;2080478;28;24654;-80
2023/03/16 00:37:03;;;;;;;3.05;1.48;;;;;;;-146.25;89.31;52447.28;2089461;28;20037;-80
2023/03/16 00:38:05;;;;;;;4.90;1.77;;;;;;;-146.25;89.15;52443.22;2106046;28;28114;-80
2023/03/16 00:39:10;;;;;;;3.15;1.33;;;;;;;-146.25;89.36;52414.84;2096712;28;36109;-80
2023/03/16 00:40:12;;;;;;;4.60;1.60;;;;;;;-146.25;88.91;52467.56;2097434;28;20041;-80
2023/03/16 00:41:14;;;;;;;8.23;1.70;;;;;;;-146.25;88.66;52410.78;2095566;28;30660;-80
2023/03/16 00:42:18;;;;;;;6.70;1.60;;;;;;;-146.25;88.31;52424.97;2089101;28;24403;-80
2023/03/16 00:43:21;;;;;;;6.05;1.85;;;;;;;-146.25;88.47;52431.06;2080707;28;28231;-80
2023/03/16 00:44:26;;;;;;;6.20;1.40;;;;;;;-146.25;87.82;52433.06;2090733;28;20148;-80
2023/03/16 00:45:27;;;;;;;3.67;1.63;;;;;;;-146.25;87.24;52406.72;2105517;28;33838;-79
2023/03/16 00:46:29;;;;;;;5.13;1.40;;;;;;;-146.25;86.98;52439.16;2105769;28;30867;-80
2023/03/16 00:47:33;;;;;;;6.80;1.65;;;;;;;-146.25;87.05;52441.19;2096789;28;30200;-79
2023/03/16 00:48:36;;;;;;;9.02;1.38;;;;;;;-146.25;87.29;52433.06;2088848;28;34266;-80
2023/03/16 00:49:41;;;;;;;4.00;1.52;;;;;;;-146.25;86.98;52437.13;2098017;28;20041;-79
2023/03/16 00:50:43;;;;;;;5.55;1.90;;;;;;;-146.25;86.87;52414.84;2096360;28;27430;-80
2023/03/16 00:51:45;;;;;;;7.82;1.98;;;;;;;-146.25;87.45;52445.25;2097489;28;20045;-79
2023/03/16 00:52:47;;;;;;;5.07;1.33;;;;;;;-146.25;87.01;52392.53;2106344;28;20777;-79
2023/03/16 00:53:49;;;;;;;4.60;1.40;;;;;;;-146.25;86.96;52445.25;2105556;28;30866;-79
2023/03/16 00:54:56;;;;;;;3.47;1.50;;;;;;;-146.25;87.37;52400.63;2097096;28;20551;-79
2023/03/16 00:55:58;;;;;;;4.75;1.40;;;;;;;-146.25;87.35;52422.94;2089365;28;20049;-79
2023/03/16 00:57:01;;;;;;;4.45;1.42;;;;;;;-146.25;87.16;52396.59;2096213;28;28284;-79
2023/03/16 00:58:05;;;;;;;7.50;1.70;;;;;;;-146.25;86.92;52394.56;2097114;28;20179;-79
2023/03/16 00:59:07;;;;;;;5.80;1.65;;;;;;;-146.25;87.65;52431.06;2097153;28;26922;-79
2023/03/16 01:00:13;;;;;;;3.33;1.67;;;;;;;-146.25;87.02;52414.84;2096561;28;30102;-79
2023/03/16 01:01:18;;;;;;;6.53;1.50;;;;;;;-146.25;86.78;52420.91;2098197;28;21435;-79
2023/03/16 01:02:24;;;;;;;4.18;1.48;;;;;;;-146.25;87.34;52427.00;2097091;28;20221;-79
2023/03/16 01:03:25;;;;;;;6.22;1.60;;;;;;;-146.25;87.38;52429.03;2088954;28;20056;-79
2023/03/16 01:04:28;;;;;;;4.28;1.35;;;;;;;-146.25;87.26;52429.03;2096984;28;26948;-79
2023/03/16 01:05:32;;;;;;;3.60;1.27;;;;;;;-146.25;87.24;52437.13;2096698;28;26320;-79
2023/03/16 01:06:34;;;;;;;4.18;1.35;;;;;;;-146.25;86.97;52435.09;2089312;28;20041;-79
2023/03/16 01:07:39;;;;;;;4.60;1.75;;;;;;;-146.25;87.08;52437.13;2089459;28;20041;-79
2023/03/16 01:08:42;;;;;;;5.60;1.67;;;;;;;-146.25;87.08;52429.03;2097237;28;30407;-78
2023/03/16 01:09:43;;;;;;;4.68;1.38;;;;;;;-146.25;86.82;52427.00;2088212;28;20038;-78
2023/03/16 01:10:45;;;;;;;6.65;1.52;;;;;;;-146.25;87.42;52416.84;2089096;28;20412;-78
2023/03/16 01:11:52;;;;;;;4.68;1.13;;;;;;;-146.25;86.46;52400.63;2096377;28;21591;-79
2023/03/16 01:12:54;;;;;;;5.03;1.40;;;;;;;-146.25;86.51;52408.75;2089109;28;28847;-79
2023/03/16 01:13:56;;;;;;;3.92;1.38;;;;;;;-146.25;86.63;52408.75;2089476;28;20083;-79
2023/03/16 01:14:59;;;;;;;5.85;1.52;;;;;;;-146.25;86.53;52396.59;2096839;28;28264;-78
2023/03/16 01:16:02;;;;;;;7.70;1.42;;;;;;;-146.25;86.33;52400.63;2105760;28;25667;-78
2023/03/16 01:17:07;;;;;;;7.90;1.50;;;;;;;-146.25;86.09;52433.06;2095879;28;33841;-78
2023/03/16 01:18:09;;;;;;;5.43;1.45;;;;;;;-146.25;86.56;52364.13;2088110;28;23292;-78
2023/03/16 01:19:14;;;;;;;5.70;1.70;;;;;;;-146.25;86.71;52412.81;2096828;28;26139;-79
2023/03/16 01:20:19;;;;;;;7.30;1.58;;;;;;;-146.25;86.70;52431.06;2105975;28;20178;-78
2023/03/16 01:21:21;;;;;;;4.15;1.50;;;;;;;-146.25;86.41;52424.97;2105710;28;29243;-78
2023/03/16 01:22:24;;;;;;;5.55;1.55;;;;;;;-146.25;86.70;52422.94;2096525;28;20148;-79
2023/03/16 01:23:30;;;;;;;6.45;1.77;;;;;;;-146.25;86.61;52404.69;2088682;28;20030;-79
2023/03/16 01:24:33;;;;;;;5.35;1.52;;;;;;;-146.25;87.14;52396.59;2080269;28;35463;-79
2023/03/16 01:25:35;;;;;;;7.20;1.48;;;;;;;-146.25;86.59;52396.59;2090211;28;21024;-78
2023/03/16 01:26:37;;;;;;;5.65;1.73;;;;;;;-146.25;86.64;52422.94;2105825;28;37581;-78
2023/03/16 01:27:39;;;;;;;5.65;1.20;;;;;;;-146.25;86.49;52461.47;2105855;28;20041;-78
2023/03/16 01:28:43;;;;;;;5.57;1.33;;;;;;;-146.25;86.08;52433.06;2096906;28;20167;-78
2023/03/16 01:29:44;;;;;;;6.13;1.67;;;;;;;-146.25;86.23;52431.06;2088956;28;20045;-78
2023/03/16 01:30:46;;;;;;;4.75;1.00;;;;;;;-146.25;85.92;52408.75;2088579;28;20504;-78
2023/03/16 01:31:49;;;;;;;7.43;1.65;;;;;;;-146.25;85.90;52412.81;2089236;28;20049;-78
2023/03/16 01:32:51;;;;;;;6.20;1.35;;;;;;;-146.25;85.87;52400.63;2088401;28;20045;-78
2023/03/16 01:33:52;;;;;;;5.45;1.83;;;;;;;-146.25;85.86;52435.09;2080607;28;20042;-78
2023/03/16 01:34:57;;;;;;;5.15;1.38;;;;;;;-146.25;85.67;52441.19;2089632;28;20846;-78
2023/03/16 01:36:30;;;;;;;3.35;1.30;;;;;;;-146.25;85.64;52427.00;2105309;28;20180;-77
2023/03/16 01:37:37;;;;;;;4.28;1.40;;;;;;;-146.25;85.46;52439.16;2092149;28;20068;-77
2023/03/16 01:38:48;;;;;;;4.05;1.02;;;;;;;-146.25;86.13;52380.38;2096464;28;20041;-77
2023/03/16 01:39:53;;;;;;;7.00;1.48;;;;;;;-146.25;85.95;52437.13;2089162;28;20045;-78
2023/03/16 01:40:55;;;;;;;7.65;1.33;;;;;;;-146.25;85.85;52372.25;2096768;28;20037;-77
2023/03/16 01:41:57;;;;;;;6.15;1.88;;;;;;;-146.25;85.45;52451.31;2096195;28;20041;-77
2023/03/16 01:43:05;;;;;;;6.65;1.73;;;;;;;-146.25;85.57;52433.06;2095995;28;31781;-77
2023/03/16 01:44:19;;;;;;;9.82;1.20;;;;;;;-146.25;85.59;52424.97;2096640;28;20180;-78
2023/03/16 01:46:06;;;;;;;6.63;1.70;;;;;;;-146.25;85.93;52427.00;2097742;28;20041;-78
2023/03/16 01:47:13;;;;;;;3.40;1.48;;;;;;;-146.25;85.02;52414.84;2096801;28;20052;-78
2023/03/16 01:48:15;;;;;;;5.10;1.45;;;;;;;-146.25;84.50;52408.75;2080679;28;20095;-77
2023/03/16 01:49:32;;;;;;;4.25;1.63;;;;;;;-146.25;84.62;52424.97;2089072;28;20030;-77
2023/03/16 01:50:35;;;;;;;6.70;1.30;;;;;;;-146.25;84.50;52400.63;2088606;28;20050;-78
2023/03/16 01:52:13;;;;;;;5.28;1.70;;;;;;;-146.25;85.09;52435.09;2081510;28;20121;-77
2023/03/16 01:53:15;;;;;;;4.30;1.38;;;;;;;-146.25;84.99;52429.03;2088119;28;20818;-78
2023/03/16 01:54:27;;;;;;;5.65;1.42;;;;;;;-146.25;85.07;52420.91;2082890;28;34537;-77
2023/03/16 01:55:28;;;;;;;4.55;1.42;;;;;;;-146.25;84.16;52427.00;2097965;28;30541;-78
2023/03/16 01:56:40;;;;;;;6.95;1.63;;;;;;;-146.25;84.17;52441.19;2105513;28;29305;-77
2023/03/16 01:57:45;;;;;;;6.82;1.67;;;;;;;-146.25;84.87;52429.03;2087581;28;20075;-77
2023/03/16 01:58:51;;;;;;;5.97;1.40;;;;;;;-146.25;84.74;52437.13;2082064;28;20045;-77
2023/03/16 02:00:17;;;;;;;5.20;1.52;;;;;;;-146.25;83.85;52388.47;2088501;28;20111;-77
2023/03/16 02:01:32;;;;;;;4.28;1.30;;;;;;;-146.25;83.83;52427.00;2085225;28;20038;-78
2023/03/16 02:02:35;;;;;;;4.20;1.50;;;;;;;-146.25;83.88;52410.78;2088311;28;20176;-77
2023/03/16 02:03:38;;;;;;;5.60;1.60;;;;;;;-146.25;83.90;52406.72;2088491;28;20049;-77
2023/03/16 02:05:02;;;;;;;4.97;1.50;;;;;;;-146.25;83.83;52435.09;2088258;28;20171;-77
2023/03/16 02:06:21;;;;;;;5.68;1.50;;;;;;;-146.25;84.18;52404.69;2084686;28;20042;-77
2023/03/16 02:07:33;;;;;;;4.78;1.40;;;;;;;-146.25;83.67;52429.03;2091307;28;20187;-78
2023/03/16 02:08:39;;;;;;;3.47;1.35;;;;;;;-146.25;83.99;52455.38;2089034;28;20087;-78
2023/03/16 02:09:48;;;;;;;5.25;1.58;;;;;;;-146.25;84.21;52368.19;2089228;28;20053;-78
2023/03/16 02:10:53;;;;;;;4.10;1.25;;;;;;;-146.25;83.88;52437.13;2087912;28;21058;-78
2023/03/16 02:11:57;;;;;;;5.18;1.48;;;;;;;-146.25;84.14;52429.03;2081729;28;20065;-78
2023/03/16 02:13:00;;;;;;;6.47;1.52;;;;;;;-146.25;84.07;52429.03;2089360;28;20126;-78
2023/03/16 02:14:10;;;;;;;4.75;1.50;;;;;;;-146.25;84.54;52412.81;2088961;28;20038;-78
2023/03/16 02:15:13;;;;;;;3.70;1.13;;;;;;;-146.25;84.68;52388.47;2089927;28;20169;-78
2023/03/16 02:16:18;;;;;;;5.45;1.88;;;;;;;-146.25;84.42;52412.81;2089844;28;20280;-78
2023/03/16 02:17:26;;;;;;;7.18;2.03;;;;;;;-146.25;84.64;52427.00;2088768;28;20207;-77
2023/03/16 02:18:32;;;;;;;7.20;1.30;;;;;;;-146.25;84.97;52390.50;2081926;28;20815;-78
2023/03/16 02:19:56;;;;;;;5.00;1.63;;;;;;;-146.25;84.80;52443.22;2081525;28;20042;-78
2023/03/16 02:21:33;;;;;;;6.05;1.52;;;;;;;-146.25;85.28;52443.22;2090616;28;34146;-78
2023/03/16 02:22:41;;;;;;;6.88;1.70;;;;;;;-146.25;85.99;52443.22;2087625;28;20681;-78
2023/03/16 02:23:44;;;;;;;5.65;1.52;;;;;;;-146.25;85.72;52412.81;2084282;28;20216;-78
2023/03/16 02:24:48;;;;;;;10.63;2.40;;;;;;;-146.25;86.10;52420.91;2087953;28;20046;-78
2023/03/16 02:26:16;;;;;;;4.10;1.63;;;;;;;-146.25;85.76;52406.72;2080896;28;20046;-78
2023/03/16 02:27:52;;;;;;;8.32;1.70;;;;;;;-146.25;85.35;52461.47;2091140;28;26788;-78
2023/03/16 02:29:48;;;;;;;4.43;1.75;;;;;;;-146.25;86.15;52441.19;2087788;28;20865;-78
2023/03/16 02:30:53;;;;;;;3.88;1.60;;;;;;;-146.25;85.88;52424.97;2079426;28;20048;-77
2023/03/16 02:31:57;;;;;;;8.02;1.95;;;;;;;-146.25;85.25;52396.59;2088159;28;20231;-77
2023/03/16 02:33:00;;;;;;;6.00;1.40;;;;;;;-146.25;85.30;52402.66;2080389;28;20088;-77
2023/03/16 02:34:03;;;;;;;3.53;1.48;;;;;;;-146.25;85.61;52427.00;2080517;28;20985;-77
2023/03/16 02:35:07;;;;;;;6.85;1.70;;;;;;;-146.25;85.29;52422.94;2080015;28;20123;-77
2023/03/16 02:36:13;;;;;;;7.28;1.85;;;;;;;-146.25;85.25;52447.28;2089396;28;20172;-77
2023/03/16 02:37:15;;;;;;;6.50;2.08;;;;;;;-146.25;85.04;52422.94;2096629;28;20041;-77
2023/03/16 02:38:17;;;;;;;4.78;1.98;;;;;;;-146.25;84.93;52390.50;2088207;28;20041;-78
2023/03/16 02:39:26;;;;;;;3.95;1.58;;;;;;;-146.25;84.76;52437.13;2088463;28;20050;-77
2023/03/16 02:40:31;;;;;;;5.05;1.50;;;;;;;-146.25;85.12;52418.88;2088598;28;20038;-78
2023/03/16 02:41:36;;;;;;;5.20;1.50;;;;;;;-146.25;85.17;52418.88;2097813;28;20093;-78
2023/03/16 02:42:40;;;;;;;6.88;1.90;;;;;;;-146.25;84.83;52384.41;2104195;28;23960;-77
2023/03/16 02:44:17;;;;;;;8.45;1.90;;;;;;;-146.25;84.59;52427.00;2104396;28;20037;-77
2023/03/16 02:45:20;;;;;;;5.35;1.75;;;;;;;-146.25;85.17;52416.84;2101576;28;20158;-77
2023/03/16 02:46:26;;;;;;;10.85;1.70;;;;;;;-146.25;84.89;52429.03;2096165;28;20869;-77
2023/03/16 02:47:42;;;;;;;3.47;1.52;;;;;;;-146.25;85.54;52459.44;2080181;28;20152;-78
2023/03/16 02:49:01;;;;;;;6.32;1.80;;;;;;;-146.25;85.70;52396.59;2084217;28;20045;-77
2023/03/16 02:50:05;;;;;;;5.65;1.70;;;;;;;-146.25;85.58;52431.06;2090479;28;20947;-77
2023/03/16 02:51:10;;;;;;;5.38;1.80;;;;;;;-146.25;85.43;52447.28;2090835;28;20049;-78
2023/03/16 02:52:12;;;;;;;7.03;1.85;;;;;;;-146.25;85.90;52404.69;2079813;28;20944;-77
2023/03/16 02:53:15;;;;;;;4.40;1.65;;;;;;;-146.25;85.43;52406.72;2080399;28;20918;-77
2023/03/16 02:54:17;;;;;;;5.00;1.45;;;;;;;-146.25;85.63;52437.13;2087992;28;20104;-77
2023/03/16 02:55:20;;;;;;;6.78;1.90;;;;;;;-146.25;86.13;52429.03;2079933;28;20049;-78
2023/03/16 02:56:22;;;;;;;6.40;2.03;;;;;;;-146.25;86.00;52441.19;2096691;28;20045;-77
2023/03/16 02:57:24;;;;;;;5.10;1.73;;;;;;;-146.25;85.84;52427.00;2095870;28;20049;-77
2023/03/16 02:58:27;;;;;;;7.75;2.00;;;;;;;-146.25;86.43;52422.94;2087952;28;20092;-78
2023/03/16 02:59:28;;;;;;;7.93;1.42;;;;;;;-146.25;85.92;52382.38;2087612;28;22328;-78
2023/03/16 03:00:31;;;;;;;4.78;1.67;;;;;;;-146.25;85.78;52445.25;2089210;28;20037;-77
2023/03/16 03:01:33;;;;;;;4.90;1.77;;;;;;;-146.25;85.87;52416.84;2104398;28;20044;-78
2023/03/16 03:02:35;;;;;;;8.63;2.05;;;;;;;-146.25;86.42;52392.53;2104960;28;21517;-78
2023/03/16 03:03:39;;;;;;;6.20;2.38;;;;;;;-146.25;85.79;52459.44;2104636;28;20037;-77
2023/03/16 03:04:41;;;;;;;11.45;2.15;;;;;;;-146.25;85.84;52449.31;2104800;28;20802;-77
2023/03/16 03:05:43;;;;;;;9.20;2.15;;;;;;;-146.25;86.10;52408.75;2113500;28;20044;-78
2023/03/16 03:06:44;;;;;;;8.48;2.38;;;;;;;-146.25;86.59;52392.53;2104494;28;20075;-77
2023/03/16 03:07:46;;;;;;;7.55;1.90;;;;;;;-146.25;86.61;52433.06;2096441;28;20037;-77
2023/03/16 03:08:48;;;;;;;7.40;1.60;;;;;;;-146.25;86.51;52433.06;2096669;28;20036;-77
2023/03/16 03:09:52;;;;;;;7.15;2.42;;;;;;;-146.25;86.09;52429.03;2087644;28;20119;-78
2023/03/16 03:10:54;;;;;;;5.97;1.95;;;;;;;-146.25;87.28;52441.19;2086165;28;20052;-78
2023/03/16 03:11:59;;;;;;;4.13;2.00;;;;;;;-146.25;87.06;52394.56;2088473;28;20038;-78
2023/03/16 03:13:01;;;;;;;11.30;2.38;;;;;;;-146.25;86.98;52429.03;2088259;28;20911;-77
2023/03/16 03:14:03;;;;;;;7.13;2.20;;;;;;;-146.25;86.85;52445.25;2088093;28;21009;-78
2023/03/16 03:15:06;;;;;;;5.82;2.10;;;;;;;-146.25;86.93;52429.03;2079324;28;21012;-79
2023/03/16 03:16:15;;;;;;;6.10;1.88;;;;;;;-146.25;86.46;52418.88;2089385;28;20067;-78
2023/03/16 03:17:17;;;;;;;6.97;2.20;;;;;;;-146.25;86.80;52418.88;2096290;28;20064;-78
2023/03/16 03:18:19;;;;;;;7.22;2.22;;;;;;;-146.25;86.62;52404.69;2096540;28;20139;-78
2023/03/16 03:19:22;;;;;;;5.05;2.05;;;;;;;-146.25;86.56;52469.56;2087716;28;20941;-78
2023/03/16 03:20:24;;;;;;;5.10;1.75;;;;;;;-146.25;86.10;52420.91;2079539;28;20846;-78
2023/03/16 03:21:27;;;;;;;9.10;1.90;;;;;;;-146.25;85.86;52416.84;2079425;28;20088;-78
2023/03/16 03:22:29;;;;;;;5.28;2.05;;;;;;;-146.25;86.09;52412.81;2087779;28;20038;-77
2023/03/16 03:23:31;;;;;;;5.60;2.15;;;;;;;-146.25;86.63;52416.84;2096510;28;21322;-78
2023/03/16 03:24:33;;;;;;;6.53;2.00;;;;;;;-146.25;85.66;52437.13;2095670;28;21108;-77
2023/03/16 03:25:37;;;;;;;7.50;2.13;;;;;;;-146.25;86.08;52422.94;2087784;28;20042;-77
2023/03/16 03:26:39;;;;;;;7.22;2.40;;;;;;;-146.25;86.85;52453.34;2079715;28;20078;-78
2023/03/16 03:27:49;;;;;;;8.23;2.75;;;;;;;-146.25;86.09;52443.22;2080536;28;20034;-77
2023/03/16 03:28:54;;;;;;;8.50;2.20;;;;;;;-146.25;86.72;52400.63;2088243;28;20903;-77
2023/03/16 03:29:56;;;;;;;9.95;1.90;;;;;;;-146.25;86.16;52396.59;2087882;28;21000;-77
2023/03/16 03:30:57;;;;;;;7.70;2.40;;;;;;;-146.25;86.48;52418.88;2087920;28;20022;-78
2023/03/16 03:32:01;;;;;;;6.43;1.85;;;;;;;-146.25;87.16;52422.94;2095759;28;20052;-77
2023/03/16 03:33:04;;;;;;;5.22;2.15;;;;;;;-146.25;86.65;52400.63;2087728;28;20084;-78
2023/03/16 03:34:06;;;;;;;6.03;2.15;;;;;;;-146.25;86.81;52390.50;2079482;28;20045;-78
2023/03/16 03:35:13;;;;;;;11.82;2.20;;;;;;;-146.25;87.32;52441.19;2096688;28;20049;-77
2023/03/16 03:36:15;;;;;;;7.63;2.47;;;;;;;-146.25;86.94;52414.84;2095564;28;20040;-77
2023/03/16 03:37:18;;;;;;;5.57;2.10;;;;;;;-146.25;86.64;52445.25;2080070;28;20884;-78
2023/03/16 03:38:20;;;;;;;6.65;2.10;;;;;;;-146.25;87.02;52439.16;2079228;28;20163;-78
2023/03/16 03:39:23;;;;;;;5.00;1.98;;;;;;;-146.25;87.51;52441.19;2079359;28;20157;-77
2023/03/16 03:40:25;;;;;;;7.18;2.00;;;;;;;-146.25;87.35;52427.00;2079771;28;20779;-77
2023/03/16 03:41:33;;;;;;;6.63;2.30;;;;;;;-146.25;87.16;52439.16;2096396;28;20057;-77
2023/03/16 03:42:40;;;;;;;3.95;1.98;;;;;;;-146.25;87.06;52433.06;2095742;28;20092;-77
2023/03/16 03:43:43;;;;;;;7.30;2.20;;;;;;;-146.25;86.53;52416.84;2096864;28;20037;-77
2023/03/16 03:44:51;;;;;;;5.45;2.15;;;;;;;-146.25;86.61;52453.34;2095728;28;20906;-77
2023/03/16 03:45:57;;;;;;;8.70;2.08;;;;;;;-146.25;86.33;52396.59;2095922;28;20080;-77
2023/03/16 03:46:59;;;;;;;9.63;1.95;;;;;;;-146.25;86.31;52433.06;2096041;28;20049;-77
2023/03/16 03:48:01;;;;;;;5.75;2.10;;;;;;;-146.25;86.42;52420.91;2079595;28;20042;-77
2023/03/16 03:49:04;;;;;;;7.20;1.95;;;;;;;-146.25;86.47;52439.16;2079929;28;20038;-77
2023/03/16 03:50:12;;;;;;;4.72;2.10;;;;;;;-146.25;86.64;52408.75;2088763;28;20072;-76
2023/03/16 03:51:34;;;;;;;7.38;2.25;;;;;;;-146.25;87.17;52420.91;2091415;28;20041;-78
2023/03/16 03:52:40;;;;;;;6.78;2.10;;;;;;;-146.25;87.52;52400.63;2095833;28;20033;-77
2023/03/16 03:53:42;;;;;;;9.23;2.17;;;;;;;-146.25;87.75;52424.97;2096036;28;20909;-77
2023/03/16 03:55:00;;;;;;;6.55;2.00;;;;;;;-146.25;87.55;52410.78;2098232;28;20171;-77
2023/03/16 03:56:02;;;;;;;4.93;1.83;;;;;;;-146.25;87.39;52422.94;2104713;28;20144;-77
2023/03/16 03:57:04;;;;;;;5.35;1.92;;;;;;;-146.25;87.74;52441.19;2095542;28;20045;-77
2023/03/16 03:58:06;;;;;;;7.05;2.25;;;;;;;-146.25;87.04;52420.91;2095869;28;21145;-77
2023/03/16 03:59:09;;;;;;;4.88;2.40;;;;;;;-146.25;86.96;52420.91;2095915;28;20045;-77
2023/03/16 04:00:51;;;;;;;5.82;1.90;;;;;;;-146.25;87.57;52422.94;2067710;28;20049;-76
2023/03/16 04:01:53;;;;;;;14.50;2.08;;;;;;;-146.25;87.28;52449.31;2070726;28;20897;-77
2023/03/16 04:02:57;;;;;;;5.93;1.77;;;;;;;-146.25;87.59;52408.75;2062571;28;20087;-76
2023/03/16 04:04:06;;;;;;;6.07;1.42;;;;;;;-146.25;87.13;52392.53;2064118;28;20097;-76
2023/03/16 04:05:08;;;;;;;5.43;1.85;;;;;;;-146.25;86.97;52402.66;2062485;28;20042;-77
2023/03/16 04:06:12;;;;;;;6.70;1.80;;;;;;;-146.25;87.11;52443.22;2058733;28;20138;-76
2023/03/16 04:07:14;;;;;;;5.88;2.17;;;;;;;-146.25;86.58;52380.38;2087711;28;20050;-77
2023/03/16 04:08:17;;;;;;;5.47;2.10;;;;;;;-146.25;86.36;52408.75;2088081;28;20053;-77
2023/03/16 04:09:19;;;;;;;5.28;1.85;;;;;;;-146.25;85.74;52433.06;2087504;28;20041;-76
2023/03/16 04:10:31;;;;;;;6.25;2.20;;;;;;;-146.25;85.79;52451.31;2096481;28;21025;-77
2023/03/16 04:11:36;;;;;;;3.42;1.73;;;;;;;-146.25;85.64;52422.94;2095586;28;20095;-77
2023/03/16 04:12:38;;;;;;;5.60;2.25;;;;;;;-146.25;85.71;52392.53;2087745;28;20026;-76
2023/03/16 04:13:42;;;;;;;6.68;2.13;;;;;;;-146.25;85.58;52429.03;2088086;28;20538;-76
2023/03/16 04:14:44;;;;;;;5.03;1.90;;;;;;;-146.25;85.20;52410.78;2088081;28;20053;-76
2023/03/16 04:15:46;;;;;;;5.70;2.35;;;;;;;-146.25;84.88;52420.91;2087685;28;20046;-76
2023/03/16 04:16:55;;;;;;;8.27;2.03;;;;;;;-146.25;84.66;52416.84;2088257;28;20740;-76
2023/03/16 04:17:58;;;;;;;7.00;2.38;;;;;;;-146.25;85.07;52414.84;2096161;28;20934;-76
2023/03/16 04:19:00;;;;;;;4.50;2.00;;;;;;;-146.25;84.45;52408.75;2104598;28;20049;-76
2023/03/16 04:20:10;;;;;;;5.40;1.98;;;;;;;-146.25;84.58;52437.13;2105168;28;20044;-76
2023/03/16 04:21:16;;;;;;;5.93;2.13;;;;;;;-146.25;84.19;52445.25;2095744;28;20883;-76
2023/03/16 04:22:22;;;;;;;4.63;2.10;;;;;;;-146.25;84.06;52418.88;2095587;28;20095;-76
2023/03/16 04:23:24;;;;;;;6.20;2.40;;;;;;;-146.25;83.66;52406.72;2087620;28;20038;-76
2023/03/16 04:24:27;;;;;;;6.00;2.25;;;;;;;-146.25;83.96;52416.84;2096058;28;20130;-77
2023/03/16 04:25:29;;;;;;;7.55;2.42;;;;;;;-146.25;83.48;52410.78;2095368;28;20901;-76
2023/03/16 04:26:33;;;;;;;6.50;2.00;;;;;;;-146.25;83.35;52431.06;2096367;28;20144;-76
2023/03/16 04:27:35;;;;;;;7.18;2.20;;;;;;;-146.25;83.57;52429.03;2095112;28;20048;-76
2023/03/16 04:28:38;;;;;;;6.78;2.17;;;;;;;-146.25;83.78;52424.97;2087550;28;20046;-76
2023/03/16 04:29:43;;;;;;;7.03;2.20;;;;;;;-146.25;83.17;52427.00;2087884;28;20041;-76
2023/03/16 04:30:44;;;;;;;8.00;2.28;;;;;;;-146.25;83.29;52437.13;2095839;28;22263;-76
2023/03/16 04:31:54;;;;;;;6.18;2.53;;;;;;;-146.25;83.52;52396.59;2095671;28;20092;-76
2023/03/16 04:32:57;;;;;;;7.53;2.50;;;;;;;-146.25;83.85;52422.94;2095679;28;20048;-77
2023/03/16 04:33:59;;;;;;;10.40;2.50;;;;;;;-146.25;82.95;52386.44;2087568;28;20033;-76
2023/03/16 04:35:00;;;;;;;4.93;2.28;;;;;;;-146.25;82.35;52427.00;2096007;28;20188;-76
2023/03/16 04:36:15;;;;;;;6.53;2.53;;;;;;;-146.25;82.11;52424.97;2095685;28;20044;-76
2023/03/16 04:37:17;;;;;;;8.05;2.75;;;;;;;-146.25;82.04;52433.06;2096245;28;20148;-76
2023/03/16 04:38:19;;;;;;;4.72;2.22;;;;;;;-146.25;81.88;52400.63;2087696;28;20045;-77
2023/03/16 04:39:29;;;;;;;5.50;2.25;;;;;;;-146.25;81.55;52420.91;2097021;28;21026;-77
2023/03/16 04:40:31;;;;;;;5.03;2.15;;;;;;;-146.25;81.41;52392.53;2103933;28;21869;-77
2023/03/16 04:41:42;;;;;;;10.10;2.22;;;;;;;-146.25;81.46;52431.06;2095696;28;20079;-77
2023/03/16 04:42:50;;;;;;;9.07;2.78;;;;;;;-146.25;80.92;52396.59;2088316;28;20930;-77
2023/03/16 04:43:53;;;;;;;6.72;2.50;;;;;;;-146.25;80.54;52459.44;2096060;28;20037;-77
2023/03/16 04:44:57;;;;;;;6.35;2.10;;;;;;;-146.25;79.86;52390.50;2095858;28;20937;-77
2023/03/16 04:46:01;;;;;;;9.23;2.75;;;;;;;-146.25;79.86;52429.03;2096197;28;20025;-77
2023/03/16 04:47:04;;;;;;;7.90;3.00;;;;;;;-146.25;79.96;52414.84;2104490;28;20154;-77
2023/03/16 04:48:11;;;;;;;6.68;2.47;;;;;;;-146.25;80.17;52392.53;2095867;28;20041;-77
2023/03/16 04:49:13;;;;;;;7.20;2.25;;;;;;;-146.25;79.33;52396.59;2087460;28;20038;-77
2023/03/16 04:50:18;;;;;;;3.67;2.28;;;;;;;-146.25;79.58;52433.06;2087596;28;20040;-77
2023/03/16 04:51:26;;;;;;;6.20;2.50;;;;;;;-146.25;79.77;52449.31;2088051;28;20040;-77
2023/03/16 04:52:40;;;;;;;5.57;2.33;;;;;;;-146.25;79.50;52443.22;2088883;28;20042;-77
2023/03/16 04:53:43;;;;;;;7.00;2.55;;;;;;;-146.25;79.57;52410.78;2088960;28;20139;-77
2023/03/16 04:54:55;;;;;;;6.07;2.58;;;;;;;-146.25;80.06;52427.00;2089928;28;20799;-77
2023/03/16 04:55:59;;;;;;;4.25;2.35;;;;;;;-146.25;80.04;52416.84;2089124;28;20926;-77
2023/03/16 04:57:02;;;;;;;5.93;2.35;;;;;;;-146.25;79.95;52433.06;2089009;28;20148;-77
2023/03/16 04:58:15;;;;;;;6.50;2.50;;;;;;;-146.25;79.44;52408.75;2089930;28;20899;-77
2023/03/16 04:59:16;;;;;;;6.88;2.65;;;;;;;-146.25;79.45;52384.41;2097435;28;20060;-78
2023/03/16 05:00:24;;;;;;;8.48;2.80;;;;;;;-146.25;79.64;52418.88;2097425;28;20196;-77
2023/03/16 05:01:38;;;;;;;6.82;2.60;;;;;;;-146.25;79.44;52433.06;2088696;28;20926;-77